createdAt,value
2018-07-02T00:00:25.344Z,12.10
2018-07-02T00:02:52.676Z,12.30
2018-07-02T00:05:19.978Z,12.20
2018-07-02T00:07:47.375Z,11.10
2018-07-02T00:12:42.003Z,12.20
2018-07-02T00:15:09.737Z,11.90
2018-07-02T00:17:37.224Z,12.10
2018-07-02T00:20:05.481Z,11.80
2018-07-02T00:22:32.783Z,11.60
2018-07-02T00:25:00.102Z,11.70
2018-07-02T00:27:27.400Z,11.70
2018-07-02T00:29:54.727Z,11.60
2018-07-02T00:32:22.012Z,11.60
2018-07-02T00:34:49.314Z,11.60
2018-07-02T00:37:16.626Z,11.60
2018-07-02T00:39:43.922Z,11.60
2018-07-02T00:42:11.224Z,11.20
2018-07-02T00:44:38.542Z,10.10
2018-07-02T00:47:05.870Z,11.20
2018-07-02T00:52:00.524Z,11.10
2018-07-02T00:54:27.846Z,11.10
2018-07-02T00:56:59.087Z,10.90
2018-07-02T00:59:26.378Z,11.10
2018-07-02T01:01:53.703Z,11.00
2018-07-02T01:04:21.032Z,11.10
2018-07-02T01:06:48.355Z,11.20
2018-07-02T01:09:15.677Z,10.80
2018-07-02T01:11:42.965Z,10.80
2018-07-02T01:14:10.628Z,10.70
2018-07-02T01:16:37.904Z,10.70
2018-07-02T01:19:05.218Z,9.70
2018-07-02T01:21:32.532Z,10.80
2018-07-02T01:23:59.806Z,10.20
2018-07-02T01:26:27.106Z,9.50
2018-07-02T01:28:54.391Z,10.60
2018-07-02T01:31:21.702Z,10.00
2018-07-02T01:33:49.000Z,9.40
2018-07-02T01:36:16.287Z,9.80
2018-07-02T01:38:43.567Z,10.40
2018-07-02T01:41:10.891Z,10.40
2018-07-02T01:43:38.176Z,10.40
2018-07-02T01:46:05.495Z,10.40
2018-07-02T01:48:32.793Z,10.30
2018-07-02T01:51:00.111Z,9.40
2018-07-02T01:53:27.399Z,10.30
2018-07-02T01:55:54.699Z,10.20
2018-07-02T01:58:21.975Z,10.20
2018-07-02T02:00:49.330Z,10.10
2018-07-02T02:03:16.614Z,9.70
2018-07-02T02:05:43.912Z,10.10
2018-07-02T02:08:11.249Z,9.90
2018-07-02T02:10:38.590Z,9.90
2018-07-02T02:13:05.901Z,9.90
2018-07-02T02:15:33.332Z,9.10
2018-07-02T02:18:00.610Z,9.90
2018-07-02T02:20:27.928Z,9.10
2018-07-02T02:22:55.340Z,9.90
2018-07-02T02:27:49.844Z,9.80
2018-07-02T02:30:17.139Z,9.60
2018-07-02T02:32:44.516Z,8.70
2018-07-02T02:35:11.824Z,10.50
2018-07-02T02:40:06.577Z,9.60
2018-07-02T02:42:33.992Z,9.60
2018-07-02T02:47:28.772Z,9.50
2018-07-02T02:49:56.092Z,8.60
2018-07-02T02:52:23.375Z,8.20
2018-07-02T02:54:50.676Z,9.70
2018-07-02T02:57:17.987Z,8.50
2018-07-02T02:59:45.263Z,9.20
2018-07-02T03:02:12.575Z,9.20
2018-07-02T03:04:39.870Z,8.40
2018-07-02T03:07:07.168Z,9.10
2018-07-02T03:09:34.670Z,9.20
2018-07-02T03:12:02.164Z,9.20
2018-07-02T03:14:38.384Z,9.00
2018-07-02T03:17:07.141Z,9.00
2018-07-02T03:19:34.468Z,9.00
2018-07-02T03:22:01.767Z,9.20
2018-07-02T03:24:29.091Z,9.10
2018-07-02T03:29:23.705Z,9.10
2018-07-02T03:31:50.977Z,9.10
2018-07-02T03:36:45.602Z,9.00
2018-07-02T03:39:13.012Z,9.00
2018-07-02T03:41:40.316Z,9.00
2018-07-02T03:44:07.679Z,9.00
2018-07-02T03:46:35.200Z,9.00
2018-07-02T03:49:02.527Z,9.10
2018-07-02T03:51:29.803Z,8.30
2018-07-02T03:53:57.164Z,9.10
2018-07-02T03:56:24.502Z,9.30
2018-07-02T03:58:51.819Z,8.60
2018-07-02T04:01:19.149Z,8.60
2018-07-02T04:03:46.476Z,9.20
2018-07-02T04:06:13.860Z,9.20
2018-07-02T04:08:41.159Z,9.20
2018-07-02T04:11:08.513Z,9.20
2018-07-02T04:13:35.873Z,9.30
2018-07-02T04:16:03.508Z,9.40
2018-07-02T04:18:30.795Z,9.40
2018-07-02T04:20:58.127Z,9.50
2018-07-02T04:28:19.931Z,9.70
2018-07-02T04:30:47.242Z,9.90
2018-07-02T04:33:14.511Z,10.00
2018-07-02T04:35:41.854Z,10.10
2018-07-02T04:38:09.157Z,9.70
2018-07-02T04:40:36.479Z,10.20
2018-07-02T04:43:04.153Z,10.30
2018-07-02T04:45:31.132Z,10.40
2018-07-02T04:47:58.436Z,10.50
2018-07-02T04:50:25.718Z,10.40
2018-07-02T04:52:53.174Z,10.70
2018-07-02T04:55:20.476Z,10.80
2018-07-02T04:57:47.779Z,10.90
2018-07-02T05:00:15.140Z,11.00
2018-07-02T05:02:42.422Z,9.90
2018-07-02T05:05:09.703Z,10.60
2018-07-02T05:07:37.013Z,11.30
2018-07-02T05:12:31.580Z,11.60
2018-07-02T05:14:58.863Z,10.80
2018-07-02T05:17:26.153Z,11.90
2018-07-02T05:24:48.000Z,12.40
2018-07-02T05:27:15.281Z,12.50
2018-07-02T05:29:43.494Z,12.60
2018-07-02T05:32:10.785Z,12.80
2018-07-02T05:34:38.059Z,13.00
2018-07-02T05:37:05.360Z,12.50
2018-07-02T05:39:32.634Z,12.40
2018-07-02T05:41:59.914Z,13.70
2018-07-02T05:44:27.195Z,13.90
2018-07-02T05:46:54.447Z,14.10
2018-07-02T05:49:21.767Z,14.20
2018-07-02T05:51:49.059Z,14.30
2018-07-02T05:54:16.375Z,13.80
2018-07-02T05:56:44.247Z,14.10
2018-07-02T05:59:11.516Z,14.80
2018-07-02T06:04:06.098Z,15.10
2018-07-02T06:06:33.361Z,15.20
2018-07-02T06:09:00.667Z,14.00
2018-07-02T06:11:27.972Z,15.80
2018-07-02T06:13:55.259Z,15.70
2018-07-02T06:16:22.522Z,16.00
2018-07-02T06:18:49.797Z,16.10
2018-07-02T06:21:17.070Z,16.30
2018-07-02T06:23:44.343Z,15.00
2018-07-02T06:26:11.619Z,16.40
2018-07-02T06:28:38.891Z,16.50
2018-07-02T06:31:06.155Z,16.70
2018-07-02T06:33:33.434Z,16.80
2018-07-02T06:38:27.983Z,17.20
2018-07-02T06:40:55.279Z,17.60
2018-07-02T06:43:22.547Z,18.40
2018-07-02T06:45:49.970Z,19.30
2018-07-02T06:50:44.507Z,20.20
2018-07-02T06:53:11.768Z,20.60
2018-07-02T06:55:39.056Z,20.70
2018-07-02T06:58:06.339Z,20.90
2018-07-02T07:00:33.643Z,21.60
2018-07-02T07:03:00.922Z,22.10
2018-07-02T07:07:55.458Z,22.30
2018-07-02T07:10:22.756Z,22.70
2018-07-02T07:12:50.032Z,23.40
2018-07-02T07:15:17.325Z,22.80
2018-07-02T07:17:44.596Z,24.50
2018-07-02T07:20:11.896Z,25.20
2018-07-02T07:22:39.155Z,26.20
2018-07-02T07:25:06.466Z,25.80
2018-07-02T07:27:33.802Z,25.70
2018-07-02T07:30:01.031Z,25.60
2018-07-02T07:32:28.320Z,26.20
2018-07-02T07:34:55.609Z,26.30
2018-07-02T07:37:22.949Z,26.50
2018-07-02T07:39:50.184Z,26.50
2018-07-02T07:42:17.450Z,25.80
2018-07-02T07:44:44.760Z,26.80
2018-07-02T07:47:12.024Z,26.80
2018-07-02T07:49:39.359Z,28.80
2018-07-02T07:52:06.642Z,30.10
2018-07-02T07:54:33.922Z,29.00
2018-07-02T07:57:01.223Z,29.60
2018-07-02T07:59:28.540Z,30.40
2018-07-02T08:01:55.847Z,29.40
2018-07-02T08:04:23.106Z,28.20
2018-07-02T08:06:50.433Z,29.30
2018-07-02T08:11:45.059Z,31.10
2018-07-02T08:14:12.359Z,31.50
2018-07-02T08:16:39.952Z,32.80
2018-07-02T08:19:07.239Z,33.30
2018-07-02T08:21:34.531Z,33.70
2018-07-02T08:24:01.991Z,33.60
2018-07-02T08:26:29.338Z,33.60
2018-07-02T08:28:56.746Z,34.60
2018-07-02T08:33:51.352Z,34.20
2018-07-02T08:36:18.659Z,34.10
2018-07-02T08:38:46.055Z,35.40
2018-07-02T08:41:13.393Z,34.20
2018-07-02T08:43:40.665Z,35.80
2018-07-02T08:46:08.036Z,36.70
2018-07-02T08:48:35.300Z,37.30
2018-07-02T08:51:02.627Z,37.10
2018-07-02T08:53:29.907Z,37.80
2018-07-02T08:55:57.194Z,36.50
2018-07-02T08:58:24.488Z,36.90
2018-07-02T09:00:51.750Z,37.10
2018-07-02T09:03:19.027Z,37.70
2018-07-02T09:05:46.305Z,39.50
2018-07-02T09:08:13.593Z,37.90
2018-07-02T09:10:40.888Z,39.00
2018-07-02T09:15:35.690Z,38.20
2018-07-02T09:18:03.024Z,39.30
2018-07-02T09:20:30.339Z,40.30
2018-07-02T09:22:57.655Z,41.50
2018-07-02T09:25:24.941Z,41.50
2018-07-02T09:27:52.231Z,41.40
2018-07-02T09:30:19.497Z,40.30
2018-07-02T09:32:46.786Z,39.90
2018-07-02T09:35:14.048Z,38.70
2018-07-02T09:40:08.581Z,38.50
2018-07-02T09:47:30.384Z,43.10
2018-07-02T09:49:57.693Z,44.20
2018-07-02T09:52:24.950Z,43.20
2018-07-02T09:54:52.232Z,43.10
2018-07-02T09:57:19.491Z,43.70
2018-07-02T09:59:46.780Z,45.10
2018-07-02T10:02:14.042Z,45.40
2018-07-02T10:04:41.330Z,45.20
2018-07-02T10:07:08.635Z,44.70
2018-07-02T10:09:35.938Z,45.00
2018-07-02T10:12:03.212Z,44.70
2018-07-02T10:14:30.503Z,41.00
2018-07-02T10:16:57.802Z,42.90
2018-07-02T10:19:25.151Z,44.00
2018-07-02T10:21:52.426Z,44.50
2018-07-02T10:24:19.706Z,45.90
2018-07-02T10:26:46.988Z,43.70
2018-07-02T10:29:14.316Z,42.30
2018-07-02T10:31:41.632Z,43.30
2018-07-02T10:34:08.920Z,42.80
2018-07-02T10:39:06.357Z,44.70
2018-07-02T10:41:33.666Z,44.60
2018-07-02T10:44:00.947Z,44.90
2018-07-02T10:46:28.204Z,46.20
2018-07-02T10:48:55.499Z,45.00
2018-07-02T10:51:22.824Z,46.10
2018-07-02T10:53:50.096Z,45.70
2018-07-02T10:56:17.411Z,47.10
2018-07-02T10:58:44.707Z,47.10
2018-07-02T11:01:12.028Z,48.00
2018-07-02T11:03:39.334Z,43.90
2018-07-02T11:06:06.675Z,43.90
2018-07-02T11:08:33.955Z,46.10
2018-07-02T11:11:01.265Z,46.80
2018-07-02T11:13:29.000Z,47.90
2018-07-02T11:15:56.330Z,47.80
2018-07-02T11:20:51.119Z,46.90
2018-07-02T11:23:18.508Z,45.80
2018-07-02T11:25:45.827Z,48.90
2018-07-02T11:28:13.318Z,48.80
2018-07-02T11:30:40.651Z,48.80
2018-07-02T11:33:07.940Z,48.00
2018-07-02T11:35:35.239Z,48.50
2018-07-02T11:38:02.545Z,48.60
2018-07-02T11:40:29.830Z,48.10
2018-07-02T11:42:57.117Z,47.80
2018-07-02T11:45:24.437Z,47.40
2018-07-02T11:50:19.016Z,47.80
2018-07-02T11:52:46.313Z,47.50
2018-07-02T11:55:13.883Z,47.80
2018-07-02T11:57:41.207Z,47.80
2018-07-02T12:00:09.054Z,48.80
2018-07-02T12:02:36.484Z,47.70
2018-07-02T12:05:04.100Z,47.40
2018-07-02T12:07:31.411Z,46.80
2018-07-02T12:09:58.803Z,45.50
2018-07-02T12:12:27.335Z,39.70
2018-07-02T12:14:54.624Z,35.40
2018-07-02T12:17:22.226Z,33.30
2018-07-02T12:19:49.520Z,31.80
2018-07-02T12:22:16.811Z,30.90
2018-07-02T12:24:44.098Z,30.40
2018-07-02T12:27:11.441Z,29.70
2018-07-02T12:29:38.726Z,27.70
2018-07-02T12:32:06.008Z,26.70
2018-07-02T12:37:00.575Z,27.50
2018-07-02T12:39:27.863Z,27.50
2018-07-02T12:41:55.118Z,27.90
2018-07-02T12:46:49.776Z,27.10
2018-07-02T12:49:16.995Z,26.20
2018-07-02T12:51:44.271Z,26.80
2018-07-02T12:54:11.663Z,26.90
2018-07-02T12:59:06.414Z,26.50
2018-07-02T13:01:33.725Z,26.60
2018-07-02T13:04:01.441Z,26.90
2018-07-02T13:06:28.851Z,27.30
2018-07-02T13:08:56.179Z,27.00
2018-07-02T13:11:23.485Z,26.80
2018-07-02T13:13:50.812Z,27.00
2018-07-02T13:16:18.075Z,27.10
2018-07-02T13:18:45.411Z,27.50
2018-07-02T13:21:12.695Z,27.60
2018-07-02T13:23:40.008Z,27.60
2018-07-02T13:26:07.322Z,27.60
2018-07-02T13:28:34.700Z,27.50
2018-07-02T13:31:02.024Z,27.40
2018-07-02T13:33:29.376Z,27.00
2018-07-02T13:35:56.679Z,27.50
2018-07-02T13:38:23.996Z,26.60
2018-07-02T13:40:51.307Z,27.30
2018-07-02T13:43:18.638Z,27.00
2018-07-02T13:45:46.084Z,26.90
2018-07-02T13:48:13.347Z,27.10
2018-07-02T13:50:40.643Z,27.30
2018-07-02T13:53:07.919Z,27.30
2018-07-02T13:55:35.215Z,27.70
2018-07-02T13:58:02.508Z,27.40
2018-07-02T14:00:30.000Z,26.90
2018-07-02T14:02:57.511Z,27.50
2018-07-02T14:05:24.798Z,27.70
2018-07-02T14:10:20.983Z,27.90
2018-07-02T14:12:48.304Z,27.90
2018-07-02T14:15:15.660Z,27.90
2018-07-02T14:17:43.908Z,27.80
2018-07-02T14:20:11.170Z,27.70
2018-07-02T14:22:38.587Z,27.70
2018-07-02T14:25:05.923Z,27.80
2018-07-02T14:27:33.211Z,28.00
2018-07-02T14:30:01.261Z,26.70
2018-07-02T14:32:28.611Z,26.60
2018-07-02T14:37:23.545Z,27.80
2018-07-02T14:39:50.882Z,27.90
2018-07-02T14:42:18.175Z,27.80
2018-07-02T14:44:45.566Z,27.60
2018-07-02T14:47:12.968Z,27.60
2018-07-02T14:49:40.900Z,27.50
2018-07-02T14:54:35.536Z,27.70
2018-07-02T14:57:03.976Z,27.70
2018-07-02T14:59:31.383Z,27.70
2018-07-02T15:01:58.659Z,27.70
2018-07-02T15:06:54.179Z,27.90
2018-07-02T15:09:22.961Z,28.00
2018-07-02T15:11:50.275Z,28.10
2018-07-02T15:14:17.576Z,28.00
2018-07-02T15:16:44.918Z,28.00
2018-07-02T15:21:39.529Z,27.80
2018-07-02T15:24:14.753Z,27.80
2018-07-02T15:26:42.075Z,27.60
2018-07-02T15:29:09.388Z,27.70
2018-07-02T15:31:36.719Z,27.70
2018-07-02T15:34:04.770Z,27.70
2018-07-02T15:36:32.087Z,27.60
2018-07-02T15:38:59.403Z,27.60
2018-07-02T15:41:26.753Z,27.40
2018-07-02T15:43:54.090Z,27.60
2018-07-02T15:46:21.417Z,27.60
2018-07-02T15:51:16.050Z,27.50
2018-07-02T15:56:10.659Z,27.40
2018-07-02T15:58:38.035Z,27.40
2018-07-02T16:01:05.327Z,27.20
2018-07-02T16:03:32.610Z,27.00
2018-07-02T16:05:59.903Z,27.10
2018-07-02T16:08:27.174Z,27.00
2018-07-02T16:10:54.478Z,27.20
2018-07-02T16:15:49.422Z,26.90
2018-07-02T16:18:16.735Z,26.70
2018-07-02T16:20:44.038Z,27.00
2018-07-02T16:23:11.404Z,26.40
2018-07-02T16:25:38.724Z,27.00
2018-07-02T16:28:06.317Z,27.00
2018-07-02T16:30:33.659Z,27.50
2018-07-02T16:33:01.751Z,27.00
2018-07-02T16:35:29.122Z,27.00
2018-07-02T16:37:57.183Z,27.00
2018-07-02T16:40:25.280Z,26.90
2018-07-02T16:42:54.196Z,26.80
2018-07-02T16:47:49.700Z,26.70
2018-07-02T16:50:17.035Z,26.60
2018-07-02T16:52:46.111Z,26.50
2018-07-02T16:55:13.396Z,26.60
2018-07-02T16:57:40.719Z,26.30
2018-07-02T17:05:03.523Z,26.40
2018-07-02T17:07:30.842Z,26.30
2018-07-02T17:09:58.190Z,26.30
2018-07-02T17:12:25.564Z,26.30
2018-07-02T17:14:52.851Z,26.30
2018-07-02T17:17:20.288Z,26.20
2018-07-02T17:19:47.596Z,25.80
2018-07-02T17:22:14.952Z,25.70
2018-07-02T17:24:42.392Z,26.20
2018-07-02T17:27:09.848Z,26.10
2018-07-02T17:29:37.156Z,26.10
2018-07-02T17:32:04.511Z,26.00
2018-07-02T17:34:31.799Z,24.80
2018-07-02T17:36:59.082Z,26.00
2018-07-02T17:39:26.415Z,26.00
2018-07-02T17:41:53.687Z,25.90
2018-07-02T17:44:20.983Z,25.90
2018-07-02T17:46:48.294Z,25.80
2018-07-02T17:49:15.608Z,24.90
2018-07-02T17:51:42.866Z,25.60
2018-07-02T17:54:10.187Z,25.60
2018-07-02T17:56:37.484Z,25.60
2018-07-02T17:59:04.791Z,25.40
2018-07-02T18:01:32.103Z,25.40
2018-07-02T18:03:59.427Z,25.30
2018-07-02T18:06:26.750Z,25.20
2018-07-02T18:08:54.187Z,25.20
2018-07-02T18:11:21.475Z,24.90
2018-07-02T18:13:49.262Z,25.00
2018-07-02T18:16:16.616Z,25.00
2018-07-02T18:18:44.030Z,25.10
2018-07-02T18:21:11.322Z,24.50
2018-07-02T18:26:05.940Z,24.80
2018-07-02T18:31:00.516Z,24.70
2018-07-02T18:33:27.851Z,24.90
2018-07-02T18:35:55.195Z,24.50
2018-07-02T18:38:22.568Z,23.60
2018-07-02T18:40:49.921Z,24.40
2018-07-02T18:43:17.281Z,23.90
2018-07-02T18:45:44.574Z,23.70
2018-07-02T18:48:11.894Z,24.10
2018-07-02T18:50:39.213Z,24.00
2018-07-02T18:53:06.598Z,23.90
2018-07-02T18:55:33.978Z,23.70
2018-07-02T19:00:28.519Z,23.40
2018-07-02T19:02:55.809Z,23.30
2018-07-02T19:05:23.190Z,23.20
2018-07-02T19:07:50.959Z,23.10
2018-07-02T19:10:18.266Z,22.90
2018-07-02T19:12:45.623Z,22.50
2018-07-02T19:15:12.974Z,22.60
2018-07-02T19:17:40.270Z,22.40
2018-07-02T19:20:07.635Z,22.30
2018-07-02T19:22:34.972Z,22.20
2018-07-02T19:25:02.345Z,22.00
2018-07-02T19:27:29.701Z,21.90
2018-07-02T19:29:57.004Z,21.40
2018-07-02T19:32:24.330Z,21.80
2018-07-02T19:34:51.656Z,20.30
2018-07-02T19:39:46.314Z,21.20
2018-07-02T19:42:13.624Z,21.20
2018-07-02T19:47:10.347Z,21.00
2018-07-02T19:49:37.691Z,21.00
2018-07-02T19:52:05.152Z,20.90
2018-07-02T19:54:32.482Z,20.90
2018-07-02T19:56:59.759Z,20.70
2018-07-02T19:59:27.085Z,20.80
2018-07-02T20:01:54.435Z,20.70
2018-07-02T20:04:21.714Z,20.70
2018-07-02T20:06:49.343Z,20.70
2018-07-02T20:09:17.315Z,20.60
2018-07-02T20:11:45.314Z,20.50
2018-07-02T20:14:13.436Z,20.50
2018-07-02T20:16:41.338Z,20.40
2018-07-02T20:19:09.556Z,19.90
2018-07-02T20:21:37.694Z,20.20
2018-07-02T20:24:05.811Z,20.20
2018-07-02T20:26:33.769Z,19.90
2018-07-02T20:29:01.665Z,20.00
2018-07-02T20:33:56.303Z,19.80
2018-07-02T20:36:23.606Z,19.70
2018-07-02T20:41:18.215Z,19.50
2018-07-02T20:43:45.575Z,19.40
2018-07-02T20:46:12.966Z,19.30
2018-07-02T20:48:40.322Z,19.20
2018-07-02T20:51:07.714Z,18.30
2018-07-02T20:53:35.428Z,18.10
2018-07-02T20:56:02.791Z,18.80
2018-07-02T20:58:30.108Z,17.70
2018-07-02T21:00:57.432Z,18.60
2018-07-02T21:03:24.756Z,18.10
2018-07-02T21:05:52.336Z,18.50
2018-07-02T21:08:19.732Z,18.40
2018-07-02T21:10:47.149Z,19.40
2018-07-02T21:13:14.440Z,18.10
2018-07-02T21:18:09.016Z,18.10
2018-07-02T21:20:36.311Z,18.00
2018-07-02T21:23:03.588Z,18.00
2018-07-02T21:25:30.878Z,17.80
2018-07-02T21:27:58.118Z,17.80
2018-07-02T21:30:25.515Z,17.70
2018-07-02T21:32:52.822Z,17.70
2018-07-02T21:35:20.115Z,17.70
2018-07-02T21:37:47.390Z,17.50
2018-07-02T21:45:09.271Z,17.30
2018-07-02T21:47:36.542Z,17.20
2018-07-02T21:52:31.499Z,17.10
2018-07-02T21:54:58.803Z,15.90
2018-07-02T21:57:26.083Z,16.70
2018-07-02T21:59:53.401Z,16.70
2018-07-02T22:02:20.718Z,15.90
2018-07-02T22:04:48.191Z,16.60
2018-07-02T22:07:15.504Z,16.40
2018-07-02T22:09:42.812Z,16.40
2018-07-02T22:12:10.184Z,16.40
2018-07-02T22:14:37.479Z,16.00
2018-07-02T22:17:04.851Z,15.40
2018-07-02T22:19:33.212Z,16.20
2018-07-02T22:22:00.490Z,16.20
2018-07-02T22:24:27.765Z,16.00
2018-07-02T22:26:55.043Z,16.00
2018-07-02T22:29:22.315Z,15.60
2018-07-02T22:34:18.508Z,15.90
2018-07-02T22:36:45.827Z,16.50
2018-07-02T22:39:13.183Z,15.20
2018-07-02T22:41:40.603Z,14.80
2018-07-02T22:44:08.827Z,15.30
2018-07-02T22:46:36.265Z,15.70
2018-07-02T22:49:03.620Z,15.30
2018-07-02T22:51:30.974Z,15.60
2018-07-02T22:53:58.291Z,15.50
2018-07-02T22:56:25.580Z,15.00
2018-07-02T22:58:52.963Z,15.40
2018-07-02T23:01:20.331Z,15.30
2018-07-02T23:03:47.772Z,15.30
2018-07-02T23:06:15.080Z,15.30
2018-07-02T23:08:42.371Z,15.30
2018-07-02T23:11:09.642Z,15.20
2018-07-02T23:13:37.019Z,15.00
2018-07-02T23:16:04.745Z,14.80
2018-07-02T23:18:33.071Z,14.90
2018-07-02T23:21:00.487Z,14.80
2018-07-02T23:23:27.806Z,14.00
2018-07-02T23:25:55.082Z,14.70
2018-07-02T23:28:23.451Z,14.50
2018-07-02T23:33:18.004Z,14.70
2018-07-02T23:35:45.270Z,14.50
2018-07-02T23:38:12.576Z,13.90
2018-07-02T23:40:39.839Z,14.50
2018-07-02T23:43:07.111Z,14.50
2018-07-02T23:45:34.358Z,14.40
2018-07-02T23:48:01.649Z,14.40
2018-07-02T23:50:29.052Z,14.30
2018-07-02T23:55:23.647Z,14.30
2018-07-02T23:57:50.927Z,13.30
